createdAt,value
2022-12-13T00:03:34.222Z,98503.78
2022-12-13T00:07:38.499Z,98499.41
2022-12-13T00:11:44.640Z,98499.13
2022-12-13T00:15:58.701Z,98489.34
2022-12-13T00:20:03.894Z,98491.81
2022-12-13T00:24:08.449Z,98492.63
2022-12-13T00:28:14.185Z,98474.66
2022-12-13T00:32:18.561Z,98477.16
2022-12-13T00:36:25.705Z,98479.16
2022-12-13T00:40:30.681Z,98479.16
2022-12-13T00:44:36.415Z,98468.91
2022-12-13T00:48:40.475Z,98450.22
2022-12-13T00:52:44.918Z,98456.19
2022-12-13T00:56:48.959Z,98443.03
2022-12-13T01:00:55.840Z,98448.88
2022-12-13T01:05:00.144Z,98444.34
2022-12-13T01:09:04.630Z,98442.28
2022-12-13T01:13:09.037Z,98453.69
2022-12-13T01:17:14.688Z,98444.75
2022-12-13T01:21:20.485Z,98441.97
2022-12-13T01:25:27.042Z,98451.13
2022-12-13T01:29:30.996Z,98460.88
2022-12-13T01:33:36.994Z,98457.28
2022-12-13T01:37:41.142Z,98458.59
2022-12-13T01:41:46.373Z,98462.00
2022-12-13T01:45:50.200Z,98458.94
2022-12-13T01:49:56.966Z,98458.75
2022-12-13T01:54:05.755Z,98453.63
2022-12-13T01:58:10.369Z,98461.00
2022-12-13T02:02:14.684Z,98454.72
2022-12-13T02:06:22.997Z,98456.63
2022-12-13T02:10:27.918Z,98444.72
2022-12-13T02:14:33.396Z,98454.38
2022-12-13T02:18:50.125Z,98453.97
2022-12-13T02:23:11.493Z,98437.06
2022-12-13T02:27:30.708Z,98431.38
2022-12-13T02:31:43.221Z,98428.41
2022-12-13T02:35:54.083Z,98432.88
2022-12-13T02:40:01.661Z,98429.31
2022-12-13T02:44:21.876Z,98424.25
2022-12-13T02:52:46.862Z,98419.66
2022-12-13T02:56:55.586Z,98425.72
2022-12-13T03:01:27.839Z,98400.00
2022-12-13T03:06:09.952Z,98404.59
2022-12-13T03:10:18.909Z,98413.97
2022-12-13T03:14:23.428Z,98397.44
2022-12-13T03:18:28.947Z,98411.94
2022-12-13T03:22:34.853Z,98392.69
2022-12-13T03:26:40.550Z,98401.13
2022-12-13T03:30:43.677Z,98407.63
2022-12-13T03:34:50.853Z,98406.06
2022-12-13T03:39:03.595Z,98402.50
2022-12-13T03:43:08.757Z,98370.63
2022-12-13T03:47:12.072Z,98399.03
2022-12-13T03:51:15.321Z,98386.22
2022-12-13T03:55:18.511Z,98402.22
2022-12-13T03:59:22.869Z,98397.19
2022-12-13T04:03:26.299Z,98392.25
2022-12-13T04:07:34.401Z,98398.00
2022-12-13T04:11:54.748Z,98390.75
2022-12-13T04:15:59.045Z,98381.81
2022-12-13T04:20:02.308Z,98371.09
2022-12-13T04:24:06.127Z,98376.28
2022-12-13T05:32:24.821Z,98377.78
2022-12-13T07:33:52.572Z,98393.16
2022-12-13T07:37:55.325Z,98395.13
2022-12-13T08:20:33.892Z,98403.69
2022-12-13T08:42:00.416Z,98397.88
2022-12-13T08:46:19.354Z,98411.81
2022-12-13T08:50:23.743Z,98414.75
2022-12-13T08:54:31.752Z,98416.66
2022-12-13T08:58:36.301Z,98422.06
2022-12-13T09:02:40.461Z,98414.22
2022-12-13T09:06:44.963Z,98421.75
2022-12-13T09:10:49.953Z,98422.00
2022-12-13T09:15:03.856Z,98418.53
2022-12-13T09:19:26.305Z,98427.63
2022-12-13T09:23:31.551Z,98415.88
2022-12-13T09:27:40.723Z,98397.72
2022-12-13T09:31:52.688Z,98404.13
2022-12-13T09:36:01.351Z,98411.06
2022-12-13T11:10:27.553Z,98359.50
2022-12-13T11:48:50.945Z,98298.53
2022-12-13T11:52:55.157Z,98296.00
2022-12-13T11:57:01.061Z,98297.59
2022-12-13T12:01:09.532Z,98293.03
2022-12-13T12:05:28.216Z,98276.75
2022-12-13T12:13:51.570Z,98272.59
2022-12-13T12:17:55.560Z,98265.66
2022-12-13T12:22:14.185Z,98270.75
2022-12-13T12:26:19.234Z,98258.34
2022-12-13T12:30:24.276Z,98270.53
2022-12-13T12:34:34.780Z,98272.13
2022-12-13T12:38:53.281Z,98274.72
2022-12-13T12:43:16.711Z,98272.94
2022-12-13T12:47:47.979Z,98267.38
2022-12-13T12:51:57.110Z,98268.16
2022-12-13T12:56:10.579Z,98263.72
2022-12-13T13:00:15.644Z,98254.72
2022-12-13T13:04:22.087Z,98257.50
2022-12-13T13:08:30.085Z,98246.28
2022-12-13T13:12:34.995Z,98241.09
2022-12-13T13:16:45.853Z,98242.88
2022-12-13T13:21:27.282Z,98242.09
2022-12-13T13:25:32.442Z,98235.91
2022-12-13T13:29:38.704Z,98230.16
2022-12-13T13:33:48.523Z,98232.34
2022-12-13T13:42:16.921Z,98247.50
2022-12-13T13:46:21.021Z,98238.75
2022-12-13T13:59:15.699Z,98232.09
2022-12-13T14:03:50.821Z,98223.34
2022-12-13T14:08:20.455Z,98223.50
2022-12-13T14:12:46.298Z,98207.72
2022-12-13T14:21:20.654Z,98196.00
2022-12-13T14:25:52.580Z,98192.19
2022-12-13T14:29:58.154Z,98207.09
2022-12-13T14:34:03.053Z,98190.56
2022-12-13T14:38:13.551Z,98181.38
2022-12-13T14:42:24.406Z,98171.84
2022-12-13T14:46:27.197Z,98170.44
2022-12-13T14:50:35.372Z,98174.66
2022-12-13T14:54:45.553Z,98162.84
2022-12-13T14:58:54.269Z,98138.25
2022-12-13T15:02:59.832Z,98163.81
2022-12-13T15:07:07.656Z,98153.72
2022-12-13T15:11:11.967Z,98159.38
2022-12-13T15:15:24.401Z,98146.75
2022-12-13T15:19:32.991Z,98150.66
2022-12-13T15:23:48.906Z,98129.72
2022-12-13T15:27:55.747Z,98139.84
2022-12-13T15:31:59.621Z,98164.63
2022-12-13T15:36:06.865Z,98163.16
2022-12-13T15:40:14.376Z,98157.81
2022-12-13T15:44:21.377Z,98168.41
2022-12-13T15:48:26.765Z,98166.66
2022-12-13T15:52:33.381Z,98164.88
2022-12-13T15:56:38.321Z,98160.28
2022-12-13T16:00:48.707Z,98166.38
2022-12-13T16:09:19.175Z,98162.38
2022-12-13T16:13:26.850Z,98165.56
2022-12-13T16:17:32.114Z,98178.00
2022-12-13T16:30:15.432Z,98147.47
2022-12-13T16:34:20.278Z,98137.63
2022-12-13T17:12:45.870Z,98120.25
2022-12-13T18:38:26.183Z,98086.38
2022-12-13T18:42:32.360Z,98078.97
2022-12-13T18:46:37.441Z,98074.06
2022-12-13T18:50:45.578Z,98080.41
2022-12-13T19:26:47.431Z,98058.78
2022-12-13T19:30:50.250Z,98047.38
2022-12-13T19:34:53.255Z,98026.06
2022-12-13T19:38:56.962Z,98036.22
2022-12-13T19:43:01.553Z,98036.31
2022-12-13T19:47:04.587Z,98026.34
2022-12-13T19:51:08.766Z,98011.84
2022-12-13T19:55:12.023Z,98012.19
2022-12-13T19:59:16.503Z,98011.81
2022-12-13T20:03:19.682Z,98009.38
2022-12-13T20:07:23.920Z,98003.81
2022-12-13T20:11:27.113Z,97984.47
2022-12-13T20:15:31.943Z,97987.66
2022-12-13T20:19:34.727Z,97985.28
2022-12-13T20:23:38.223Z,97974.53
2022-12-13T20:27:41.945Z,97975.53
2022-12-13T20:31:48.294Z,97962.78
2022-12-13T20:44:30.193Z,97937.31
2022-12-13T20:48:37.390Z,97949.06
2022-12-13T20:52:40.661Z,97948.34
2022-12-13T20:56:43.959Z,97953.91
2022-12-13T21:00:47.245Z,97960.69
2022-12-13T21:04:52.038Z,97951.50
2022-12-13T21:08:56.782Z,97929.97
2022-12-13T21:13:00.144Z,97929.19
2022-12-13T21:17:04.716Z,97905.88
2022-12-13T21:21:09.828Z,97917.03
2022-12-13T21:25:14.136Z,97925.41
2022-12-13T21:29:17.579Z,97908.50
2022-12-13T21:33:20.863Z,97898.31
2022-12-13T21:37:25.620Z,97887.41
2022-12-13T21:41:29.762Z,97879.44
2022-12-13T21:45:34.826Z,97866.69
2022-12-13T21:49:38.628Z,97865.69
2022-12-13T21:53:44.229Z,97875.84
2022-12-13T21:58:07.928Z,97877.44
2022-12-13T22:02:14.889Z,97876.84
2022-12-13T22:06:18.378Z,97887.97
2022-12-13T22:10:22.963Z,97876.47
2022-12-13T22:14:26.427Z,97880.66
2022-12-13T22:18:30.520Z,97883.81
2022-12-13T22:35:26.610Z,97866.28
2022-12-13T22:43:48.555Z,97857.72
2022-12-13T22:47:51.349Z,97852.16
2022-12-13T23:39:17.309Z,97836.84
2022-12-13T23:43:20.324Z,97830.28
2022-12-13T23:47:23.608Z,97813.78
2022-12-13T23:51:27.508Z,97820.16
2022-12-13T23:55:32.104Z,97807.00
2022-12-13T23:59:36.384Z,97796.66
